Portland, Oregon
Current Conditions -  °F | °C
As of 9:31 PM on Saturday 20 Dec 2014 (Local Time) from KPDX Reporting Station
Light Rain Light Rain  
Wind Chill: 58°   Ceiling: 4900
Heat Index: 58°   Visibility: 10mi
Dew Point: 55°   Wind: 15mph
Humidity: 90%   Direction: 220°SW
Pressure: 29.68"   Gusts: 22mph
Location:  45.51°N, 122.67°W
Report Text: KPDX 210531Z 22013G19KT 10SM -RA FEW016 BKN049 OVC090 14/13 A2968 RMK AO2 PK WND 21026/0512 P0001 T01440128
Loading
Personal Weather Stations






























Interactive Weather Map New forecast layout! Learn more

10-Day Weather Forecast

Advertisements
Track Severe Weather on mobile